CheckWX is a tool to help pilots better visualize weather data.  It is not intended as a substitute for an official pre-flight weather briefing.

06:53:24 UTC

MYGF TAF
Grand Bahama International Airport
Freeport, Bahamas
TAF MYGF 160430Z 1606/1706 14004KT 9999 SHRA FEW016CB SCT018 BKN060 PROB30 TEMPO 1616/1621 14010G20KT 4800 TSRA FEW014 BKN016CB BKN030

Jun-16@
06:00 UTC

Jun-16 @ 06:00 UTC

Jun-17@
06:00 UTC

Jun-17 @ 06:00 UTC

TAF MYGF 160430Z 1606/1706 14004KT 9999 SHRA FEW016CB SCT018 BKN060
Wind
  • 140° at 4 KTS
Conditions
Rain
Cloud Levels
  • Few at 1,600' AGL
  • Scattered at 1,800' AGL
  • Broken at 6,000' AGL

Jun-16@
16:00 UTC

Jun-16 @ 16:00 UTC

Jun-16@
21:00 UTC

Jun-16 @ 21:00 UTC

PROB30 TEMPO 1616/1621 14010G20KT 4800 TSRA FEW014 BKN016CB BKN030

Temporary - 30% Likelihood

Temporary - 30% Likelihood during this time.

Wind
  • 140° at 10 KTS
  • {Gusting to 20 KTS
Conditions
Thunderstorm, Rain
Cloud Levels
  • Few at 1,400' AGL
  • Broken at 1,600' AGL
  • Broken at 3,000' AGL